map of SHM home
SHM - Airport
Location
City:  Shirahana, Wakayama, Japan
Name:Nanki-Shirahana Airport
ICAO:RJBD
IATA:SHM

Details
Type:Airport (Aerodrome, Airfield)
Latitude:33°39'44"N (33.662222)
Longitude:135°21'52"E (135.364444)
Datum:WGS 1984
Elevation:298 ft (91 m)
Variation:7.40°W (WMM2015 magnetic declination)
-0.07° annual change
Runways:2
Longest:6560 × 148 ft (1999 × 45 m), paved

Time
Time Zone:UTC+9
Local Time:

Weather
METAR:RJBD 181000Z 35010KT 9999 FEW035 08/00 Q1023

Related Locations
Nearby:
Farthest:SNPV: 12038 mi / 19373 km
Mostardas [Solidão], RS, BR

Find:

   beyond  
but within

Other Information
Maps:
NOTAMs:
Links:
Sources:

  
  • flag of Japan
  • flag of Wakayama
  

Sectional Chart

Flight Planning
at skyvector.com

Satellite Image

Google Maps Satellite view

 

Copyright © 2004-2019 Karl L. Swartz. All rights reserved.
The Great Circle Mapper name and logo are trademarks of the Great Circle Mapper.
All other trademarks mentioned herein belong to their respective owners.
Please see credits for attibutions and further copyright information.

  Follow gcmap on Facebook Follow gcmap on Twitter Follow gcmap on Google+ GCmap on LinkedIn

hCard Microformat

Geo Microformat